createdAt,value
2018-11-04T05:01:47.625Z,18.90
2018-11-04T05:04:17.237Z,18.10
2018-11-04T05:06:45.817Z,18.90
2018-11-04T05:09:15.389Z,23.18
2018-11-04T05:11:43.540Z,19.57
2018-11-04T05:14:11.710Z,21.67
2018-11-04T05:16:39.940Z,19.77
2018-11-04T05:19:08.706Z,19.23
2018-11-04T05:21:36.841Z,20.32
2018-11-04T05:24:05.831Z,19.33
2018-11-04T05:26:34.788Z,18.60
2018-11-04T05:29:02.954Z,17.60
2018-11-04T05:31:32.162Z,20.23
2018-11-04T05:34:00.306Z,18.27
2018-11-04T05:36:28.481Z,17.30
2018-11-04T05:38:56.756Z,18.70
2018-11-04T05:41:26.172Z,17.90
2018-11-04T05:43:54.698Z,18.70
2018-11-04T05:46:22.906Z,20.10
2018-11-04T05:48:51.038Z,17.47
2018-11-04T05:51:19.258Z,20.93
2018-11-04T05:53:48.823Z,21.75
2018-11-04T05:56:17.316Z,18.60
2018-11-04T05:58:45.800Z,17.67
2018-11-04T06:01:14.179Z,19.73
2018-11-04T06:03:42.774Z,17.47
2018-11-04T06:06:11.154Z,18.23
2018-11-04T06:08:40.018Z,19.87
2018-11-04T06:11:08.153Z,16.82
2018-11-04T06:13:37.247Z,18.33
2018-11-04T06:16:08.362Z,20.72
2018-11-04T06:18:36.534Z,18.50
2018-11-04T06:21:05.600Z,19.43
2018-11-04T06:23:34.170Z,17.77
2018-11-04T06:26:02.323Z,17.80
2018-11-04T06:28:30.438Z,18.00
2018-11-04T06:30:58.621Z,19.40
2018-11-04T06:33:27.216Z,19.07
2018-11-04T06:35:55.759Z,24.17
2018-11-04T06:38:23.917Z,21.52
2018-11-04T06:40:52.140Z,19.40
2018-11-04T06:43:20.241Z,20.53
2018-11-04T06:45:48.445Z,22.50
2018-11-04T06:48:16.646Z,20.27
2018-11-04T06:50:45.425Z,21.33
2018-11-04T06:53:13.607Z,23.77
2018-11-04T06:55:41.780Z,21.13
2018-11-04T06:58:09.936Z,21.47
2018-11-04T07:00:38.235Z,20.95
2018-11-04T07:03:06.802Z,21.57
2018-11-04T07:05:36.427Z,18.40
2018-11-04T07:08:04.988Z,19.90
2018-11-04T07:10:33.137Z,20.13
2018-11-04T07:13:01.293Z,21.33
2018-11-04T07:15:29.492Z,22.30
2018-11-04T07:17:57.716Z,20.02
2018-11-04T07:20:26.521Z,19.77
2018-11-04T07:22:55.691Z,22.73
2018-11-04T07:25:23.895Z,18.23
2018-11-04T07:27:52.163Z,20.48
2018-11-04T07:30:20.301Z,18.87
2018-11-04T07:32:48.562Z,18.10
2018-11-04T07:35:17.222Z,19.00
2018-11-04T07:37:46.053Z,17.07
2018-11-04T07:40:14.482Z,18.12
2018-11-04T07:42:42.633Z,18.00
2018-11-04T07:45:10.896Z,20.60
2018-11-04T07:47:39.066Z,18.93
2018-11-04T07:50:09.841Z,19.47
2018-11-04T07:52:38.106Z,20.53
2018-11-04T07:55:08.407Z,19.23
2018-11-04T07:57:39.361Z,17.63
2018-11-04T08:00:11.938Z,20.55
2018-11-04T08:02:40.290Z,21.33
2018-11-04T08:05:09.543Z,19.20
2018-11-04T08:07:39.103Z,20.43
2018-11-04T08:10:10.202Z,21.17
2018-11-04T08:12:38.841Z,23.03
2018-11-04T08:15:08.177Z,20.67
2018-11-04T08:17:37.198Z,20.27
2018-11-04T08:20:06.136Z,20.30
2018-11-04T08:22:34.494Z,24.35
2018-11-04T08:25:02.685Z,27.10
2018-11-04T08:27:30.866Z,23.53
2018-11-04T08:29:59.073Z,22.43
2018-11-04T08:32:27.236Z,22.93
2018-11-04T08:34:55.919Z,23.37
2018-11-04T08:37:24.139Z,25.20
2018-11-04T08:39:52.345Z,24.10
2018-11-04T08:42:20.635Z,23.27
2018-11-04T08:44:48.818Z,22.25
2018-11-04T08:47:17.685Z,23.60
2018-11-04T08:49:46.678Z,23.77
2018-11-04T08:52:15.230Z,27.83
2018-11-04T08:54:43.472Z,24.60
2018-11-04T08:57:12.029Z,26.40
2018-11-04T08:59:40.433Z,24.37
2018-11-04T09:02:08.601Z,22.80
2018-11-04T09:04:37.399Z,23.50
2018-11-04T09:07:06.163Z,24.87
2018-11-04T09:09:34.640Z,28.43
2018-11-04T09:12:04.662Z,26.73
2018-11-04T09:14:32.779Z,26.60
2018-11-04T09:17:01.599Z,26.53
2018-11-04T09:19:29.784Z,25.67
2018-11-04T09:21:58.311Z,31.23
2018-11-04T09:24:26.522Z,27.55
2018-11-04T09:26:54.968Z,27.63
2018-11-04T09:29:23.135Z,26.67
2018-11-04T09:31:51.340Z,27.67
2018-11-04T09:34:19.546Z,28.90
2018-11-04T09:36:47.794Z,30.67
2018-11-04T09:39:16.316Z,28.30
2018-11-04T09:41:44.915Z,30.27
2018-11-04T09:44:13.096Z,30.00
2018-11-04T09:46:41.369Z,31.73
2018-11-04T09:49:09.509Z,31.60
2018-11-04T09:51:37.761Z,33.58
2018-11-04T09:54:06.493Z,31.00
2018-11-04T09:56:37.537Z,34.47
2018-11-04T09:59:06.842Z,30.53
2018-11-04T10:01:35.394Z,35.57
2018-11-04T10:04:03.827Z,33.63
2018-11-04T10:06:31.945Z,31.80
2018-11-04T10:09:00.630Z,35.48
2018-11-04T10:11:30.453Z,34.80
2018-11-04T10:14:00.257Z,34.15
2018-11-04T10:16:28.417Z,33.77
2018-11-04T10:19:00.172Z,39.60
2018-11-04T10:21:30.508Z,36.40
2018-11-04T10:23:59.979Z,31.93
2018-11-04T10:26:31.358Z,32.57
2018-11-04T10:29:01.951Z,34.92
2018-11-04T10:31:30.598Z,35.88
2018-11-04T10:34:00.477Z,34.83
2018-11-04T10:36:29.140Z,37.33
2018-11-04T10:38:58.656Z,36.87
2018-11-04T10:41:27.797Z,34.23
2018-11-04T10:43:56.550Z,39.17
2018-11-04T10:46:27.567Z,38.90
2018-11-04T10:48:57.145Z,36.63
2018-11-04T10:51:27.181Z,36.00
2018-11-04T10:53:56.174Z,38.63
2018-11-04T10:56:24.311Z,35.55
2018-11-04T10:58:52.435Z,37.00
2018-11-04T11:01:26.954Z,35.75
2018-11-04T11:03:55.128Z,37.47
2018-11-04T11:06:23.209Z,37.27
2018-11-04T11:08:51.317Z,35.03
2018-11-04T11:11:19.920Z,37.30
2018-11-04T11:13:49.325Z,39.33
2018-11-04T11:16:21.312Z,33.70
2018-11-04T11:18:50.248Z,36.60
2018-11-04T11:21:19.830Z,36.63
2018-11-04T11:23:52.752Z,35.70
2018-11-04T11:26:20.832Z,35.07
2018-11-04T11:28:48.930Z,37.13
2018-11-04T11:31:17.569Z,35.07
2018-11-04T11:33:45.802Z,35.50
2018-11-04T11:36:13.915Z,35.53
2018-11-04T11:38:49.637Z,34.00
2018-11-04T11:41:17.823Z,35.67
2018-11-04T11:43:45.952Z,35.37
2018-11-04T11:46:14.037Z,35.50
2018-11-04T11:48:44.571Z,32.47
2018-11-04T11:51:14.995Z,31.97
2018-11-04T11:53:43.089Z,33.70
2018-11-04T11:56:11.204Z,31.10
2018-11-04T11:58:39.902Z,34.63
2018-11-04T12:01:08.921Z,38.45
2018-11-04T12:03:38.677Z,35.87
2018-11-04T12:06:07.230Z,34.87
2018-11-04T12:08:36.017Z,33.53
2018-11-04T12:11:05.122Z,35.00
2018-11-04T12:13:33.345Z,33.30
2018-11-04T12:16:02.250Z,33.73
2018-11-04T12:18:30.600Z,31.40
2018-11-04T12:20:59.425Z,33.00
2018-11-04T12:23:27.521Z,35.70
2018-11-04T12:26:01.280Z,33.87
2018-11-04T12:28:39.361Z,32.13
2018-11-04T12:31:07.508Z,33.27
2018-11-04T12:33:35.647Z,34.43
2018-11-04T12:36:05.811Z,32.80
2018-11-04T12:38:34.647Z,31.55
2018-11-04T12:41:02.764Z,33.03
2018-11-04T12:43:31.194Z,31.77
2018-11-04T12:46:00.206Z,33.50
2018-11-04T12:48:28.517Z,29.57
2018-11-04T12:50:56.685Z,30.63
2018-11-04T12:53:25.341Z,32.43
2018-11-04T12:55:57.323Z,36.75
2018-11-04T12:58:25.897Z,33.80
2018-11-04T13:00:54.625Z,30.17
2018-11-04T13:03:22.756Z,32.30
2018-11-04T13:08:30.895Z,34.57
2018-11-04T13:10:59.054Z,35.88
2018-11-04T13:13:27.890Z,36.75
2018-11-04T13:18:29.779Z,32.17
2018-11-04T13:20:58.116Z,31.97
2018-11-04T13:23:26.257Z,34.50
2018-11-04T13:25:54.357Z,32.30
2018-11-04T13:28:22.464Z,31.03
2018-11-04T13:30:50.584Z,33.77
2018-11-04T13:33:18.690Z,31.20
2018-11-04T13:35:46.933Z,29.30
2018-11-04T13:38:15.046Z,32.25
2018-11-04T13:40:43.158Z,34.57
2018-11-04T13:43:11.323Z,30.60
2018-11-04T13:45:40.261Z,31.23
2018-11-04T13:48:09.984Z,29.33
2018-11-04T13:50:38.128Z,28.67
2018-11-04T13:53:06.792Z,30.63
2018-11-04T13:55:34.901Z,35.48
2018-11-04T13:58:03.057Z,32.20
2018-11-04T14:00:31.167Z,28.40
2018-11-04T14:02:59.402Z,30.70
2018-11-04T14:05:27.507Z,31.50
2018-11-04T14:07:55.653Z,27.80
